Josserand, Texas
Current Conditions -  °F | °C
As of 7:53 PM on Wednesday 22 Oct 2014 (Local Time) from KLFK Reporting Station
Clear Clear  
Wind Chill: 66°   Ceiling: Unl
Heat Index: 66°   Visibility: 10mi
Dew Point: 57°   Wind: 3mph
Humidity: 73%   Direction: 40°NE
Pressure: 30.09"   Gusts: NA
Location:  31.0585°N, 95.0561°W
Report Text: KLFK 230053Z AUTO 04003KT 10SM CLR 19/14 A3009 RMK AO2 SLP188 T01890139
Loading
Personal Weather Stations






























Interactive Weather Map
Tropical Storm Tracking
New forecast layout! Learn more

10-Day Weather Forecast

Advertisements
Track Severe Weather on mobile